createdAt,value
2019-03-06T00:01:12.281Z,6.10
2019-03-06T00:03:47.650Z,6.53
2019-03-06T00:06:22.952Z,5.97
2019-03-06T00:08:58.228Z,6.93
2019-03-06T00:11:33.258Z,6.63
2019-03-06T00:14:08.525Z,7.30
2019-03-06T00:16:43.874Z,6.57
2019-03-06T00:19:19.514Z,6.83
2019-03-06T00:21:54.817Z,6.97
2019-03-06T00:24:29.834Z,6.03
2019-03-06T00:27:05.214Z,6.67
2019-03-06T00:29:40.565Z,6.80
2019-03-06T00:32:15.946Z,6.87
2019-03-06T00:34:54.797Z,7.00
2019-03-06T00:37:31.742Z,7.60
2019-03-06T00:40:08.492Z,6.30
2019-03-06T00:42:45.359Z,7.57
2019-03-06T00:45:20.453Z,7.37
2019-03-06T00:47:55.826Z,6.87
2019-03-06T00:50:31.107Z,9.03
2019-03-06T00:53:06.580Z,6.70
2019-03-06T00:55:41.585Z,6.47
2019-03-06T00:58:16.946Z,6.50
2019-03-06T01:00:52.010Z,6.70
2019-03-06T01:03:27.181Z,7.27
2019-03-06T01:06:02.273Z,6.53
2019-03-06T01:08:37.311Z,6.73
2019-03-06T01:11:12.599Z,7.47
2019-03-06T01:13:47.609Z,7.07
2019-03-06T01:16:22.962Z,8.07
2019-03-06T01:18:57.974Z,6.53
2019-03-06T01:21:33.984Z,7.90
2019-03-06T01:24:10.232Z,6.63
2019-03-06T01:26:45.636Z,6.50
2019-03-06T01:29:20.666Z,6.87
2019-03-06T01:31:56.069Z,6.37
2019-03-06T01:34:33.674Z,7.20
2019-03-06T01:37:17.563Z,6.93
2019-03-06T01:40:08.211Z,7.23
2019-03-06T01:42:45.527Z,6.83
2019-03-06T01:45:21.115Z,6.20
2019-03-06T01:47:57.159Z,12.27
2019-03-06T01:50:34.163Z,8.27
2019-03-06T01:53:09.456Z,7.10
2019-03-06T01:55:44.856Z,7.63
2019-03-06T01:58:20.012Z,7.13
2019-03-06T02:00:56.325Z,7.97
2019-03-06T02:03:31.627Z,7.53
2019-03-06T02:06:07.076Z,7.57
2019-03-06T02:08:42.237Z,7.27
2019-03-06T02:11:17.262Z,7.27
2019-03-06T02:13:52.305Z,7.47
2019-03-06T02:16:27.609Z,7.57
2019-03-06T02:19:02.736Z,8.93
2019-03-06T02:21:38.018Z,7.73
2019-03-06T02:24:13.303Z,7.60
2019-03-06T02:26:48.319Z,7.53
2019-03-06T02:29:23.992Z,7.70
2019-03-06T02:31:59.020Z,7.97
2019-03-06T02:34:34.218Z,7.17
2019-03-06T02:37:09.340Z,7.47
2019-03-06T02:39:44.363Z,8.87
2019-03-06T02:42:19.557Z,8.43
2019-03-06T02:44:54.748Z,7.37
2019-03-06T02:47:29.760Z,7.70
2019-03-06T02:50:08.700Z,7.80
2019-03-06T02:52:43.708Z,7.87
2019-03-06T02:55:19.006Z,8.33
2019-03-06T02:58:02.467Z,7.77
2019-03-06T03:00:41.176Z,7.87
2019-03-06T03:03:20.603Z,9.03
2019-03-06T03:06:14.125Z,9.43
2019-03-06T03:08:49.424Z,8.00
2019-03-06T03:11:24.555Z,7.87
2019-03-06T03:13:59.849Z,7.57
2019-03-06T03:16:35.135Z,8.53
2019-03-06T03:19:10.222Z,9.80
2019-03-06T03:21:45.514Z,9.03
2019-03-06T03:24:20.545Z,8.87
2019-03-06T03:26:57.618Z,8.67
2019-03-06T03:29:32.718Z,7.40
2019-03-06T03:32:07.758Z,8.40
2019-03-06T03:34:43.783Z,9.60
2019-03-06T03:37:18.892Z,9.63
2019-03-06T03:39:53.930Z,9.03
2019-03-06T03:42:29.192Z,10.50
2019-03-06T03:45:06.156Z,8.90
2019-03-06T03:47:41.314Z,7.13
2019-03-06T03:50:16.407Z,9.23
2019-03-06T03:52:51.447Z,7.63
2019-03-06T03:55:26.583Z,10.37
2019-03-06T03:58:02.527Z,9.10
2019-03-06T04:00:37.695Z,9.03
2019-03-06T04:03:12.841Z,9.27
2019-03-06T04:05:47.855Z,8.57
2019-03-06T04:08:22.922Z,10.40
2019-03-06T04:10:59.014Z,8.90
2019-03-06T04:13:34.050Z,10.80
2019-03-06T04:16:09.171Z,8.27
2019-03-06T04:18:44.259Z,8.10
2019-03-06T04:21:19.287Z,8.10
2019-03-06T04:23:54.293Z,7.87
2019-03-06T04:26:29.339Z,9.03
2019-03-06T04:29:04.751Z,8.33
2019-03-06T04:31:39.869Z,8.10
2019-03-06T04:34:15.266Z,8.13
2019-03-06T04:36:50.379Z,8.70
2019-03-06T04:39:25.458Z,9.17
2019-03-06T04:42:00.540Z,8.53
2019-03-06T04:44:35.898Z,8.60
2019-03-06T04:47:11.780Z,9.10
2019-03-06T04:49:52.560Z,8.83
2019-03-06T04:52:23.629Z,9.23
2019-03-06T04:55:00.026Z,8.40
2019-03-06T04:57:35.305Z,7.93
2019-03-06T05:00:21.181Z,8.97
2019-03-06T05:02:56.954Z,9.83
2019-03-06T05:05:33.406Z,8.30
2019-03-06T05:08:08.666Z,9.40
2019-03-06T05:10:43.801Z,8.37
2019-03-06T05:13:19.734Z,9.13
2019-03-06T05:15:55.034Z,10.27
2019-03-06T05:18:31.782Z,9.77
2019-03-06T05:21:06.906Z,9.33
2019-03-06T05:23:41.947Z,10.83
2019-03-06T05:26:17.899Z,10.13
2019-03-06T05:28:53.015Z,9.93
2019-03-06T05:31:28.128Z,10.33
2019-03-06T05:34:03.166Z,9.20
2019-03-06T05:36:43.806Z,9.47
2019-03-06T05:39:18.829Z,11.63
2019-03-06T05:41:53.950Z,11.37
2019-03-06T05:44:29.856Z,10.47
2019-03-06T05:47:06.786Z,10.23
2019-03-06T05:49:42.045Z,9.50
2019-03-06T05:52:17.061Z,10.73
2019-03-06T05:54:52.830Z,11.53
2019-03-06T05:57:27.886Z,9.70
2019-03-06T06:00:07.150Z,10.17
2019-03-06T06:02:42.186Z,11.40
2019-03-06T06:05:17.495Z,10.07
2019-03-06T06:07:52.593Z,11.47
2019-03-06T06:10:28.529Z,11.20
2019-03-06T06:13:03.638Z,10.33
2019-03-06T06:15:38.971Z,9.70
2019-03-06T06:18:14.078Z,10.37
2019-03-06T06:20:51.053Z,12.43
2019-03-06T06:23:45.227Z,10.73
2019-03-06T06:26:20.526Z,10.20
2019-03-06T06:28:55.558Z,10.23
2019-03-06T06:31:30.591Z,12.30
2019-03-06T06:34:05.650Z,10.53
2019-03-06T06:36:41.842Z,9.87
2019-03-06T06:39:16.870Z,11.13
2019-03-06T06:41:51.894Z,10.50
2019-03-06T06:44:26.939Z,11.20
2019-03-06T06:47:02.301Z,9.83
2019-03-06T06:49:37.323Z,10.07
2019-03-06T06:52:22.622Z,10.30
2019-03-06T06:55:01.039Z,10.13
2019-03-06T06:58:08.541Z,10.57
2019-03-06T07:01:03.189Z,9.13
2019-03-06T07:03:53.400Z,9.67
2019-03-06T07:06:30.068Z,10.10
2019-03-06T07:09:14.945Z,9.37
2019-03-06T07:11:51.627Z,10.10
2019-03-06T07:14:31.508Z,8.83
2019-03-06T07:17:08.542Z,8.97
2019-03-06T07:19:45.498Z,8.00
2019-03-06T07:22:26.218Z,8.83
2019-03-06T07:25:05.912Z,7.20
2019-03-06T07:27:50.299Z,7.90
2019-03-06T07:30:36.874Z,9.17
2019-03-06T07:33:17.622Z,7.33
2019-03-06T07:36:06.701Z,9.30
2019-03-06T07:38:43.644Z,7.93
2019-03-06T07:41:20.593Z,8.70
2019-03-06T07:44:00.531Z,9.40
2019-03-06T07:46:47.963Z,8.40
2019-03-06T07:49:27.562Z,7.27
2019-03-06T07:52:10.440Z,8.00
2019-03-06T07:54:57.001Z,7.97
2019-03-06T07:57:40.161Z,7.30
2019-03-06T08:00:15.853Z,8.67
2019-03-06T08:03:04.723Z,7.03
2019-03-06T08:05:40.734Z,7.47
2019-03-06T08:08:16.082Z,8.37
2019-03-06T08:10:53.233Z,6.33
2019-03-06T08:13:29.898Z,7.00
2019-03-06T08:16:10.172Z,9.20
2019-03-06T08:18:57.402Z,7.37
2019-03-06T08:21:38.894Z,6.93
2019-03-06T08:24:15.564Z,7.37
2019-03-06T08:26:50.914Z,6.87
2019-03-06T08:29:25.945Z,6.77
2019-03-06T08:32:01.577Z,7.60
2019-03-06T08:34:37.526Z,7.43
2019-03-06T08:37:17.577Z,7.33
2019-03-06T08:39:52.690Z,7.30
2019-03-06T08:42:27.994Z,6.60
2019-03-06T08:45:08.341Z,6.93
2019-03-06T08:48:02.219Z,6.70
2019-03-06T08:50:58.481Z,6.87
2019-03-06T08:53:38.784Z,7.80
2019-03-06T08:56:15.447Z,6.73
2019-03-06T08:59:10.878Z,7.30
2019-03-06T09:02:00.625Z,9.40
2019-03-06T09:04:46.246Z,7.93
2019-03-06T09:07:36.193Z,7.30
2019-03-06T09:10:16.180Z,7.00
2019-03-06T09:13:00.070Z,7.10
2019-03-06T09:15:36.750Z,6.57
2019-03-06T09:18:30.197Z,7.60
2019-03-06T09:21:08.886Z,7.93
2019-03-06T09:23:49.926Z,6.47
2019-03-06T09:26:43.121Z,6.57
2019-03-06T09:29:19.901Z,6.47
2019-03-06T09:32:06.502Z,7.93
2019-03-06T09:34:45.470Z,6.03
2019-03-06T09:37:25.281Z,6.23
2019-03-06T09:40:02.409Z,6.17
2019-03-06T09:42:56.797Z,6.17
2019-03-06T09:45:41.328Z,6.43
2019-03-06T09:48:21.394Z,5.73
2019-03-06T09:51:01.838Z,5.77
2019-03-06T09:53:57.396Z,6.47
2019-03-06T09:56:40.375Z,6.13
2019-03-06T09:59:27.866Z,5.73
2019-03-06T10:02:22.441Z,5.90
2019-03-06T10:05:02.830Z,5.40
2019-03-06T10:07:41.335Z,8.00
2019-03-06T10:10:18.958Z,5.23
2019-03-06T10:13:03.400Z,5.30
2019-03-06T10:15:42.963Z,5.03
2019-03-06T10:18:21.000Z,4.93
2019-03-06T10:20:57.381Z,4.40
2019-03-06T10:23:32.442Z,5.40
2019-03-06T10:26:07.554Z,4.97
2019-03-06T10:28:42.674Z,4.73
2019-03-06T10:31:18.082Z,5.30
2019-03-06T10:33:53.494Z,5.60
2019-03-06T10:36:28.633Z,6.17
2019-03-06T10:39:06.181Z,6.30
2019-03-06T10:41:47.861Z,5.73
2019-03-06T10:47:00.625Z,7.30
2019-03-06T10:49:36.874Z,7.10
2019-03-06T10:52:13.171Z,6.50
2019-03-06T10:54:49.829Z,6.17
2019-03-06T10:57:24.961Z,6.07
2019-03-06T11:00:00.402Z,6.10
2019-03-06T11:02:36.465Z,6.23
2019-03-06T11:05:16.350Z,5.27
2019-03-06T11:07:53.475Z,5.17
2019-03-06T11:10:32.070Z,5.33
2019-03-06T11:13:10.815Z,7.07
2019-03-06T11:15:55.355Z,5.10
2019-03-06T11:18:25.655Z,4.97
2019-03-06T11:21:04.393Z,5.37
2019-03-06T11:23:43.264Z,4.67
2019-03-06T11:26:20.360Z,4.70
2019-03-06T11:28:55.560Z,5.13
2019-03-06T11:31:32.310Z,5.10
2019-03-06T11:34:08.558Z,4.90
2019-03-06T11:36:48.287Z,5.10
2019-03-06T11:39:27.198Z,5.70
2019-03-06T11:42:02.390Z,4.07
2019-03-06T11:44:40.091Z,4.73
2019-03-06T11:47:16.771Z,5.10
2019-03-06T11:49:52.103Z,5.03
2019-03-06T11:52:29.057Z,3.83
2019-03-06T11:55:07.785Z,4.67
2019-03-06T11:57:45.322Z,4.33
2019-03-06T12:00:33.677Z,4.93
2019-03-06T12:03:08.911Z,4.23
2019-03-06T12:05:44.092Z,4.33
2019-03-06T12:08:20.577Z,3.77
2019-03-06T12:10:56.000Z,4.70
2019-03-06T12:13:31.446Z,3.80
2019-03-06T12:16:06.984Z,4.77
2019-03-06T12:18:42.378Z,4.57
2019-03-06T12:21:18.652Z,4.77
2019-03-06T12:23:55.278Z,5.57
2019-03-06T12:26:35.122Z,4.07
2019-03-06T12:29:11.413Z,3.80
2019-03-06T12:31:47.657Z,3.93
2019-03-06T12:34:22.703Z,3.70
2019-03-06T12:36:59.090Z,3.93
2019-03-06T12:39:36.339Z,3.63
2019-03-06T12:42:14.744Z,3.67
2019-03-06T12:44:52.178Z,3.53
2019-03-06T12:47:27.231Z,3.20
2019-03-06T12:50:06.186Z,3.40
2019-03-06T12:52:41.731Z,3.97
2019-03-06T12:55:17.071Z,3.80
2019-03-06T12:57:59.471Z,4.03
2019-03-06T13:00:31.432Z,4.73
2019-03-06T13:03:07.663Z,3.63
2019-03-06T13:05:42.881Z,4.03
2019-03-06T13:08:19.905Z,3.70
2019-03-06T13:10:54.855Z,3.70
2019-03-06T13:16:08.186Z,4.00
2019-03-06T13:18:43.631Z,3.57
2019-03-06T13:21:19.222Z,3.60
2019-03-06T13:23:55.312Z,3.77
2019-03-06T13:26:31.321Z,8.00
2019-03-06T13:29:06.512Z,3.07
2019-03-06T13:31:41.998Z,2.63
2019-03-06T13:34:25.902Z,3.53
2019-03-06T13:37:01.241Z,2.53
2019-03-06T13:39:36.368Z,3.00
2019-03-06T13:42:11.494Z,2.57
2019-03-06T13:44:46.982Z,3.87
2019-03-06T13:47:22.114Z,2.70
2019-03-06T13:49:57.148Z,4.30
2019-03-06T13:52:32.444Z,2.87
2019-03-06T13:55:10.763Z,3.80
2019-03-06T13:57:46.451Z,2.90
2019-03-06T14:00:24.172Z,2.73
2019-03-06T14:02:59.311Z,3.23
2019-03-06T14:05:34.430Z,2.90
2019-03-06T14:08:10.611Z,3.77
2019-03-06T14:10:45.724Z,2.50
2019-03-06T14:13:22.095Z,2.97
2019-03-06T14:15:59.016Z,3.33
2019-03-06T14:18:34.144Z,3.30
2019-03-06T14:21:09.882Z,3.43
2019-03-06T14:23:45.014Z,2.90
2019-03-06T14:26:20.239Z,2.53
2019-03-06T14:28:57.442Z,2.50
2019-03-06T14:31:32.829Z,3.47
2019-03-06T14:34:08.002Z,3.87
2019-03-06T14:36:43.132Z,2.00
2019-03-06T14:39:21.635Z,3.40
2019-03-06T14:41:58.172Z,2.90
2019-03-06T14:44:34.213Z,2.73
2019-03-06T14:47:09.425Z,3.07
2019-03-06T14:49:48.743Z,2.93
2019-03-06T14:52:23.849Z,2.87
2019-03-06T14:54:59.326Z,3.17
2019-03-06T14:57:34.428Z,3.27
2019-03-06T15:00:16.334Z,2.90
2019-03-06T15:02:57.838Z,2.77
2019-03-06T15:05:32.997Z,3.50
2019-03-06T15:08:08.389Z,3.40
2019-03-06T15:10:43.746Z,6.43
2019-03-06T15:13:18.867Z,3.60
2019-03-06T15:15:55.070Z,4.33
2019-03-06T15:18:30.177Z,4.00
2019-03-06T15:21:05.398Z,4.13
2019-03-06T15:23:40.522Z,3.20
2019-03-06T15:26:16.305Z,3.50
2019-03-06T15:28:52.341Z,3.27
2019-03-06T15:31:27.456Z,3.57
2019-03-06T15:34:02.673Z,3.50
2019-03-06T15:36:39.598Z,3.13
2019-03-06T15:39:29.546Z,3.30
2019-03-06T15:42:05.210Z,3.13
2019-03-06T15:44:40.628Z,3.60
2019-03-06T15:47:16.240Z,3.63
2019-03-06T15:49:51.350Z,3.47
2019-03-06T15:52:27.668Z,3.60
2019-03-06T15:55:03.034Z,3.20
2019-03-06T15:57:39.057Z,3.20
2019-03-06T16:00:21.948Z,3.27
2019-03-06T16:02:57.737Z,3.73
2019-03-06T16:05:33.603Z,3.37
2019-03-06T16:08:10.249Z,3.93
2019-03-06T16:10:45.462Z,3.90
2019-03-06T16:13:20.575Z,5.00
2019-03-06T16:15:56.676Z,3.77
2019-03-06T16:18:31.693Z,4.73
2019-03-06T16:21:09.719Z,4.03
2019-03-06T16:23:44.895Z,4.77
2019-03-06T16:26:20.296Z,4.83
2019-03-06T16:28:56.608Z,4.67
2019-03-06T16:31:32.177Z,5.13
2019-03-06T16:34:07.318Z,5.03
2019-03-06T16:36:42.675Z,6.90
2019-03-06T16:39:17.805Z,5.57
2019-03-06T16:41:53.334Z,7.50
2019-03-06T16:44:29.726Z,6.03
2019-03-06T16:47:06.951Z,5.73
2019-03-06T16:49:43.380Z,7.63
2019-03-06T16:52:19.479Z,7.13
2019-03-06T16:54:54.931Z,8.03
2019-03-06T16:57:30.042Z,6.83
2019-03-06T17:00:28.842Z,8.07
2019-03-06T17:03:09.175Z,7.17
2019-03-06T17:05:45.529Z,7.63
2019-03-06T17:08:20.920Z,7.70
2019-03-06T17:10:56.704Z,7.70
2019-03-06T17:13:33.672Z,6.20
2019-03-06T17:16:09.873Z,7.53
2019-03-06T17:18:45.324Z,6.83
2019-03-06T17:21:20.893Z,6.37
2019-03-06T17:23:56.307Z,7.73
2019-03-06T17:26:31.774Z,7.70
2019-03-06T17:29:12.211Z,7.77
2019-03-06T17:31:47.382Z,7.33
2019-03-06T17:34:22.728Z,7.90
2019-03-06T17:36:57.888Z,6.70
2019-03-06T17:39:33.232Z,6.53
2019-03-06T17:42:08.481Z,7.20
2019-03-06T17:44:43.696Z,7.47
2019-03-06T17:47:19.259Z,7.67
2019-03-06T17:49:54.431Z,7.60
2019-03-06T17:52:30.889Z,8.97
2019-03-06T17:55:07.554Z,7.30
2019-03-06T17:57:43.006Z,9.13
2019-03-06T18:00:22.605Z,6.40
2019-03-06T18:02:59.140Z,10.53
2019-03-06T18:05:34.766Z,8.90
2019-03-06T18:08:11.542Z,7.20
2019-03-06T18:10:47.814Z,7.47
2019-03-06T18:13:23.861Z,7.23
2019-03-06T18:15:59.294Z,7.27
2019-03-06T18:18:34.828Z,7.03
2019-03-06T18:21:10.268Z,6.83
2019-03-06T18:23:45.697Z,6.70
2019-03-06T18:26:20.843Z,5.20
2019-03-06T18:28:55.985Z,6.50
2019-03-06T18:31:31.121Z,6.47
2019-03-06T18:34:06.262Z,6.37
2019-03-06T18:36:41.738Z,6.10
2019-03-06T18:39:18.629Z,6.20
2019-03-06T18:41:53.774Z,6.17
2019-03-06T18:44:28.956Z,5.40
2019-03-06T18:47:05.078Z,5.67
2019-03-06T18:49:40.420Z,5.83
2019-03-06T18:52:15.540Z,6.17
2019-03-06T18:54:51.282Z,6.17
2019-03-06T18:57:26.739Z,5.97
2019-03-06T19:00:01.890Z,7.00
2019-03-06T19:02:37.620Z,5.87
2019-03-06T19:05:13.311Z,6.30
2019-03-06T19:07:49.738Z,5.57
2019-03-06T19:10:25.640Z,5.80
2019-03-06T19:13:02.159Z,5.83
2019-03-06T19:15:37.902Z,5.50
2019-03-06T19:18:13.581Z,5.13
2019-03-06T19:20:49.020Z,5.30
2019-03-06T19:23:25.153Z,5.17
2019-03-06T19:26:02.036Z,5.30
2019-03-06T19:28:37.708Z,7.17
2019-03-06T19:31:13.242Z,5.13
2019-03-06T19:33:48.443Z,5.10
2019-03-06T19:36:24.846Z,4.47
2019-03-06T19:39:00.538Z,4.90
2019-03-06T19:41:37.378Z,7.80
2019-03-06T19:44:13.772Z,5.60
2019-03-06T19:46:49.265Z,4.80
2019-03-06T19:49:26.685Z,5.53
2019-03-06T19:52:03.019Z,4.67
2019-03-06T19:54:38.550Z,4.67
2019-03-06T19:57:14.650Z,5.13
2019-03-06T19:59:50.206Z,4.97
2019-03-06T20:02:26.472Z,12.80
2019-03-06T20:05:01.993Z,7.30
2019-03-06T20:07:39.080Z,11.70
2019-03-06T20:10:15.345Z,12.63
2019-03-06T20:12:51.538Z,6.70
2019-03-06T20:15:27.368Z,7.70
2019-03-06T20:18:03.081Z,4.83
2019-03-06T20:20:38.863Z,5.37
2019-03-06T20:23:14.545Z,9.20
2019-03-06T20:25:50.549Z,5.23
2019-03-06T20:28:25.961Z,4.77
2019-03-06T20:31:01.877Z,4.77
2019-03-06T20:33:37.235Z,4.80
2019-03-06T20:36:12.879Z,4.83
2019-03-06T20:38:48.257Z,4.43
2019-03-06T20:41:23.993Z,5.73
2019-03-06T20:43:59.760Z,5.20
2019-03-06T20:46:34.955Z,4.17
2019-03-06T20:49:10.330Z,6.00
2019-03-06T20:51:46.544Z,4.97
2019-03-06T20:54:21.779Z,4.97
2019-03-06T20:56:57.468Z,4.70
2019-03-06T20:59:34.258Z,7.30
2019-03-06T21:02:09.517Z,4.90
2019-03-06T21:04:44.839Z,5.77
2019-03-06T21:07:20.272Z,4.07
2019-03-06T21:09:55.716Z,4.73
2019-03-06T21:12:30.904Z,4.57
2019-03-06T21:15:09.442Z,4.37
2019-03-06T21:17:45.556Z,4.30
2019-03-06T21:20:22.373Z,4.53
2019-03-06T21:22:58.430Z,4.93
2019-03-06T21:25:33.861Z,4.73
2019-03-06T21:28:10.044Z,4.70
2019-03-06T21:30:46.844Z,5.43
2019-03-06T21:33:22.347Z,4.50
2019-03-06T21:35:58.484Z,5.00
2019-03-06T21:38:33.636Z,4.93
2019-03-06T21:41:08.797Z,4.57
2019-03-06T21:43:44.205Z,4.77
2019-03-06T21:46:19.964Z,4.50
2019-03-06T21:48:55.281Z,4.83
2019-03-06T21:51:30.421Z,4.90
2019-03-06T21:54:05.551Z,7.87
2019-03-06T21:56:41.014Z,4.83
2019-03-06T21:59:17.146Z,5.03
2019-03-06T22:01:52.547Z,4.50
2019-03-06T22:04:28.778Z,3.60
2019-03-06T22:07:04.722Z,5.00
2019-03-06T22:09:40.219Z,5.93
2019-03-06T22:12:17.006Z,4.87
2019-03-06T22:14:53.071Z,5.27
2019-03-06T22:17:28.276Z,4.10
2019-03-06T22:20:04.970Z,4.63
2019-03-06T22:22:40.114Z,4.53
2019-03-06T22:25:17.890Z,4.47
2019-03-06T22:27:53.397Z,3.87
2019-03-06T22:30:28.895Z,14.10
2019-03-06T22:33:04.042Z,4.70
2019-03-06T22:35:39.720Z,5.77
2019-03-06T22:38:14.866Z,4.50
2019-03-06T22:40:50.332Z,6.00
2019-03-06T22:43:26.408Z,5.00
2019-03-06T22:46:01.459Z,5.10
2019-03-06T22:48:37.039Z,4.03
2019-03-06T22:51:12.256Z,4.57
2019-03-06T22:53:47.413Z,4.73
2019-03-06T22:56:24.007Z,4.27
2019-03-06T22:58:59.415Z,4.93
2019-03-06T23:01:35.580Z,4.83
2019-03-06T23:04:10.722Z,5.13
2019-03-06T23:06:46.120Z,4.07
2019-03-06T23:09:22.273Z,4.40
2019-03-06T23:11:58.402Z,4.00
2019-03-06T23:14:34.747Z,5.10
2019-03-06T23:17:09.891Z,4.20
2019-03-06T23:19:45.043Z,4.43
2019-03-06T23:22:21.431Z,4.30
2019-03-06T23:24:57.674Z,3.90
2019-03-06T23:27:33.748Z,4.20
2019-03-06T23:30:14.604Z,4.83
2019-03-06T23:32:50.698Z,4.37
2019-03-06T23:35:26.126Z,5.83
2019-03-06T23:38:01.266Z,4.83
2019-03-06T23:40:37.533Z,5.80
2019-03-06T23:43:13.166Z,4.83
2019-03-06T23:45:49.060Z,4.87
2019-03-06T23:48:24.167Z,4.63
2019-03-06T23:51:00.983Z,4.57
2019-03-06T23:53:45.124Z,4.30
2019-03-06T23:56:20.382Z,4.87
2019-03-06T23:58:56.466Z,4.57
